ADDS METAR Data INFO
IDs: Format: Raw Decoded Include TAF

Data at: 1037 UTC 19 Oct 2017

KMGN 191036Z AUTO 28004KT 10SM CLR 12/M01 A2991 RMK AO2 T01211017
KMGN 191016Z AUTO 29005KT 10SM CLR 12/M02 A2990 RMK AO2 T01261019
KMGN 190955Z AUTO 28008KT 10SM CLR 13/M02 A2989 RMK AO2 T01331027
KMGN 190936Z AUTO 30010G23KT 10SM CLR 13/M05 A2988 RMK AO2 T01391047
KMGN 190916Z AUTO 29009G16KT 10SM CLR 14/00 A2986 RMK AO2 T01450005
KMGN 190855Z AUTO 27007KT 240V300 10SM CLR 15/09 A2984 RMK AO2 T01520097
KMGN 190836Z AUTO 27010G18KT 10SM CLR 15/11 A2984 RMK AO2 T01570110
KMGN 190815Z AUTO 25012G23KT 10SM CLR 16/09 A2983 RMK AO2 T01610093
KMGN 190756Z AUTO 25012G22KT 10SM CLR 16/09 A2982 RMK AO2 T01620091
KMGN 190736Z AUTO 23015G21KT 10SM CLR 16/08 A2982 RMK AO2 T01650089
KMGN 190715Z AUTO 24013G22KT 10SM CLR 16/08 A2982 RMK AO2 T01680087
KMGN 190656Z AUTO 23012G19KT 10SM CLR 16/08 A2982 RMK AO2 T01660091
KMGN 190636Z AUTO 22011G16KT 10SM CLR 16/08 A2982 RMK AO2 T01600081
KMGN 190615Z AUTO 23010G16KT 10SM CLR 16/07 A2982 RMK AO2 T01620079
KMGN 190556Z AUTO 22012G21KT 10SM CLR 16/07 A2982 RMK AO2 T01620076
KMGN 190535Z AUTO 23013G19KT 10SM SCT055 16/07 A2982 RMK AO2 T01610073
KMGN 190515Z AUTO 22015G23KT 10SM SCT055 16/06 A2982 RMK AO2 T01650067
KMGN 190456Z AUTO 22015G28KT 10SM CLR 16/06 A2982 RMK AO2 T01660063
KMGN 190435Z AUTO 22017G25KT 10SM CLR 16/06 A2982 RMK AO2 T01670060
KMGN 190415Z AUTO 22016G24KT 10SM CLR 16/06 A2982 RMK AO2 T01670060
KMGN 190356Z AUTO 22015G22KT 10SM CLR 16/05 A2983 RMK AO2 T01670057
KMGN 190335Z AUTO 22015G22KT 10SM CLR 16/05 A2983 RMK AO2 T01650056
KMGN 190316Z AUTO 22014G24KT 10SM CLR 16/05 A2983 RMK AO2 T01660050
KMGN 190256Z AUTO 21015G25KT 10SM CLR 16/05 A2984 RMK AO2 T01650050
KMGN 190235Z AUTO 21012G21KT 10SM CLR 16/04 A2985 RMK AO2 T01630045
KMGN 190216Z AUTO 21011G18KT 180V250 10SM CLR 16/04 A2986 RMK AO2 T01630045
KMGN 190156Z AUTO 21014G20KT 10SM CLR 16/04 A2986 RMK AO2 T01630044
KMGN 190135Z AUTO 21013G18KT 170V240 10SM CLR 16/04 A2986 RMK AO2 T01640043
KMGN 190116Z AUTO 21011G21KT 180V250 10SM CLR 16/03 A2988 RMK AO2 T01650041
KMGN 190056Z AUTO 21010G18KT 10SM CLR 16/03 A2988 RMK AO2 T01670040
KMGN 190035Z AUTO 21007G19KT 190V250 10SM CLR 17/04 A2988 RMK AO2 T01700043
KMGN 190016Z AUTO 21008G18KT 10SM CLR 17/03 A2987 RMK AO2 T01730038
KMGN 182356Z AUTO 20011G19KT 170V250 10SM CLR 17/03 A2987 RMK AO2 T01760036
KMGN 182335Z AUTO 21011G20KT 160V230 10SM CLR 17/04 A2988 RMK AO2 T01800043
KMGN 182316Z AUTO 21012G15KT 180V240 10SM CLR 18/05 A2987 RMK AO2 T01810047
KMGN 182255Z AUTO 22009G19KT 10SM CLR 18/05 A2988 RMK AO2 T01870051
KMGN 182235Z AUTO 21008G19KT 10SM CLR 18/05 A2986 RMK AO2 T01900051
KMGN 182216Z AUTO 21010G16KT 10SM CLR 19/05 A2986 RMK AO2 T01940053
KMGN 182155Z AUTO 21015G21KT 10SM CLR 20/05 A2987 RMK AO2 T02000056
KMGN 182135Z AUTO 21016G21KT 10SM CLR 20/06 A2987 RMK AO2 T02020059
KMGN 182116Z AUTO 21012G20KT 170V240 10SM CLR 20/06 A2988 RMK AO2 T02060059
KMGN 182055Z AUTO 21015G20KT 180V250 10SM CLR 20/06 A2988 RMK AO2 T02070062
KMGN 182035Z AUTO 21013G19KT 10SM CLR 20/07 A2990 RMK AO2 T02050072
KMGN 182016Z AUTO 21015G23KT 10SM CLR 20/07 A2991 RMK AO2 T02050070
KMGN 181955Z AUTO 22015G20KT 10SM CLR 20/06 A2992 RMK AO2 T02040067
KMGN 181935Z AUTO 22013G23KT 10SM CLR 20/06 A2992 RMK AO2 T02060064
KMGN 181916Z AUTO 21012G20KT 10SM CLR 20/06 A2993 RMK AO2 T02060069
KMGN 181855Z AUTO 22012G21KT 10SM CLR 20/06 A2994 RMK AO2 T02050065
KMGN 181835Z AUTO 22011G17KT 10SM CLR 20/07 A2995 RMK AO2 T02030070
KMGN 181816Z AUTO 21012G20KT 10SM CLR 20/06 A2996 RMK AO2 T02020065
KMGN 181755Z AUTO 22011G17KT 10SM CLR 20/07 A2997 RMK AO2 T02010075
KMGN 181736Z AUTO 22011G17KT 10SM CLR 20/07 A2998 RMK AO2 T02000075
KMGN 181715Z AUTO 22010G16KT 180V250 10SM CLR 19/07 A2999 RMK AO2 T01960078
KMGN 181656Z AUTO 22012G20KT 10SM CLR 18/07 A2999 RMK AO2 T01910080
KMGN 181636Z AUTO 22012G18KT 190V250 10SM CLR 18/08 A2999 RMK AO2 T01860081
KMGN 181615Z AUTO 22010G16KT 10SM CLR 18/07 A2999 RMK AO2 T01820078
KMGN 181556Z AUTO 22011G20KT 190V250 10SM CLR 17/07 A3000 RMK AO2 T01770079
KMGN 181536Z AUTO 22008G15KT 10SM CLR 17/08 A3000 RMK AO2 T01710083
KMGN 181515Z AUTO 21009G15KT 10SM CLR 16/08 A3001 RMK AO2 T01650082
KMGN 181456Z AUTO 21010G14KT 10SM CLR 16/08 A3001 RMK AO2 T01600082
KMGN 181436Z AUTO 20008G14KT 170V240 10SM CLR 15/08 A3002 RMK AO2 T01550081
KMGN 181415Z AUTO 20008KT 160V230 10SM CLR 15/07 A3002 RMK AO2 T01480080
KMGN 181356Z AUTO 20005KT 10SM CLR 14/08 A3002 RMK AO2 T01420081
KMGN 181336Z AUTO 20007KT 10SM CLR 13/08 A3004 RMK AO2 T01350081
KMGN 181315Z AUTO 19004KT 10SM CLR 12/08 A3004 RMK AO2 T01260082
KMGN 181256Z AUTO 00000KT 10SM CLR 12/08 A3004 RMK AO2 T01230081
KMGN 181236Z AUTO 00000KT 10SM CLR 12/07 A3004 RMK AO2 T01210080
KMGN 181215Z AUTO 24003KT 10SM CLR 11/08 A3004 RMK AO2 T01160081
KMGN 181156Z AUTO 00000KT 10SM CLR 11/08 A3004 RMK AO2 T01130080
KMGN 181136Z AUTO 28003KT 10SM CLR 11/08 A3004 RMK AO2 T01130081
KMGN 181115Z AUTO 00000KT 10SM CLR 11/07 A3004 RMK AO2 T01170080
KMGN 181056Z AUTO 15003KT 10SM CLR 12/07 A3004 RMK AO2 T01200076
KMGN 181036Z AUTO 00000KT 10SM CLR 12/07 A3004 RMK AO2 T01200075
KMGN 181015Z AUTO 20004KT 10SM CLR 12/07 A3004 RMK AO2 T01200076
KMGN 180956Z AUTO 21004KT 10SM CLR 11/07 A3004 RMK AO2 T01170077
KMGN 180936Z AUTO 20004KT 10SM CLR 11/07 A3004 RMK AO2 T01180080
KMGN 180915Z AUTO 00000KT 10SM CLR 11/08 A3003 RMK AO2 T01180081
KMGN 180856Z AUTO 22003KT 10SM CLR 11/08 A3004 RMK AO2 T01150081
KMGN 180836Z AUTO 00000KT 10SM CLR 11/07 A3004 RMK AO2 T01090078
KMGN 180816Z AUTO 00000KT 10SM CLR 11/07 A3004 RMK AO2 T01110080
KMGN 180756Z AUTO 16003KT 10SM CLR 10/08 A3004 RMK AO2 T00980081
KMGN 180735Z AUTO 00000KT 10SM CLR 11/08 A3004 RMK AO2 T01090081
KMGN 180716Z AUTO 00000KT 10SM CLR 11/08 A3004 RMK AO2 T01080081
KMGN 180656Z AUTO 00000KT 10SM CLR 10/07 A3004 RMK AO2 T01030079
KMGN 180635Z AUTO 00000KT 10SM CLR 11/08 A3004 RMK AO2 T01120081
KMGN 180616Z AUTO 22005KT 10SM CLR 11/08 A3004 RMK AO2 T01120082
KMGN 180556Z AUTO 29005KT 10SM CLR 10/07 A3004 RMK AO2 T01000077
KMGN 180535Z AUTO 00000KT 10SM CLR 08/07 A3005 RMK AO2 T00830073
KMGN 180516Z AUTO 00000KT 10SM CLR 07/07 A3005 RMK AO2 T00790071
KMGN 180456Z AUTO 00000KT 10SM CLR 07/06 A3004 RMK AO2 T00770068
KMGN 180435Z AUTO 00000KT 10SM CLR 07/06 A3005 RMK AO2 T00760066
KMGN 180416Z AUTO 00000KT 10SM CLR 08/07 A3005 RMK AO2 T00810072
KMGN 180355Z AUTO 00000KT 10SM CLR 08/07 A3006 RMK AO2 T00870073
KMGN 180335Z AUTO 00000KT 10SM CLR 08/07 A3006 RMK AO2 T00850073
KMGN 180316Z AUTO 00000KT 10SM CLR 08/07 A3006 RMK AO2 T00870077
KMGN 180255Z AUTO 00000KT 10SM CLR 10/08 A3006 RMK AO2 T01030081
KMGN 180235Z AUTO 00000KT 10SM CLR 09/08 A3006 RMK AO2 T00940084
KMGN 180216Z AUTO 00000KT 10SM CLR 10/08 A3007 RMK AO2 T01000090
KMGN 180155Z AUTO 00000KT 10SM CLR 12/08 A3006 RMK AO2 T01200085
KMGN 180135Z AUTO 00000KT 10SM CLR 12/09 A3006 RMK AO2 T01230095
KMGN 180116Z AUTO 00000KT 10SM CLR 12/10 A3006 RMK AO2 T01220100
KMGN 180055Z AUTO 00000KT 10SM CLR 12/09 A3006 RMK AO2 T01250097
KMGN 180035Z AUTO 00000KT 10SM CLR 12/09 A3006 RMK AO2 T01290095
KMGN 180016Z AUTO 27003KT 10SM CLR 12/10 A3005 RMK AO2 T01230108
KMGN 172355Z AUTO 28004KT 10SM CLR 11/10 A3004 RMK AO2 T01130105
KMGN 172336Z AUTO 32003KT 10SM CLR 11/10 A3004 RMK AO2 T01110104
KMGN 172316Z AUTO 00000KT 10SM CLR 12/11 A3003 RMK AO2 T01230110
KMGN 172255Z AUTO 04003KT 10SM CLR 13/10 A3002 RMK AO2 T01350104